Time;durP1;ratioP1;P1;durP2;ratioP2;P2;SDS_P1;SDS_P2;PMS_P1;PMS_P2;Temp;Humidity;BMP_temperature;BMP_pressure;BME280_temperature;BME280_humidity;BME280_pressure;Samples;Min_cycle;Max_cycle;Signal;HPM_P1;HPM_P2
2022/05/02 00:00:43;;;;;;;3.10;1.50;;;;;;;26.35;30.00;101636.47;5053251;28;20040;-42
2022/05/02 00:03:13;;;;;;;1.88;1.35;;;;;;;26.43;29.86;101635.66;5052808;28;20086;-46
2022/05/02 00:05:42;;;;;;;4.07;1.50;;;;;;;26.38;30.12;101636.50;5052606;28;20036;-43
2022/05/02 00:08:10;;;;;;;2.53;1.50;;;;;;;26.36;29.88;101634.69;5053159;28;20090;-45
2022/05/02 00:10:39;;;;;;;2.97;1.77;;;;;;;26.34;29.99;101636.41;5053031;28;20379;-45
2022/05/02 00:13:09;;;;;;;2.17;1.63;;;;;;;26.35;30.11;101636.47;5053016;28;20024;-44
2022/05/02 00:15:38;;;;;;;2.00;1.42;;;;;;;26.33;29.68;101640.81;5053159;28;20398;-43
2022/05/02 00:18:07;;;;;;;3.08;1.42;;;;;;;26.34;29.98;101634.69;5052867;28;20394;-50
2022/05/02 00:20:37;;;;;;;3.50;1.92;;;;;;;26.32;29.96;101631.16;5052770;28;20041;-43
2022/05/02 00:23:07;;;;;;;1.85;1.10;;;;;;;26.34;29.90;101610.13;5052993;28;20482;-48
2022/05/02 00:25:34;;;;;;;3.45;1.60;;;;;;;26.37;29.99;101618.06;5053129;28;20036;-43
2022/05/02 00:28:03;;;;;;;2.97;1.35;;;;;;;26.36;30.05;101618.91;5053126;28;20028;-44
2022/05/02 00:30:31;;;;;;;2.17;1.45;;;;;;;26.32;29.95;101612.75;5052682;28;20032;-44
2022/05/02 00:33:00;;;;;;;1.98;1.48;;;;;;;26.32;29.68;101623.25;5052874;28;20040;-43
2022/05/02 00:35:29;;;;;;;2.75;1.52;;;;;;;26.34;29.93;101621.53;5035383;28;20033;-43
2022/05/02 00:37:57;;;;;;;2.05;1.17;;;;;;;26.33;30.03;101609.25;5053050;28;20352;-42
2022/05/02 00:40:26;;;;;;;2.42;1.50;;;;;;;26.29;30.12;101610.06;5052971;28;20032;-46
2022/05/02 00:42:55;;;;;;;2.50;1.30;;;;;;;26.37;29.66;101615.41;5053099;28;20025;-45
2022/05/02 00:45:24;;;;;;;1.80;1.40;;;;;;;26.31;29.80;101607.47;5052635;28;20072;-43
2022/05/02 00:47:54;;;;;;;2.15;1.30;;;;;;;26.37;29.77;101613.69;5055953;28;20043;-45
2022/05/02 00:50:35;;;;;;;3.20;1.63;;;;;;;26.34;29.65;101605.75;5057003;28;20025;-43
2022/05/02 00:53:05;;;;;;;2.10;1.65;;;;;;;26.30;29.97;101609.19;5056652;28;20020;-45
2022/05/02 00:55:34;;;;;;;1.88;1.30;;;;;;;26.25;30.01;101602.97;5056666;28;20520;-43
2022/05/02 00:58:03;;;;;;;3.65;1.50;;;;;;;26.29;29.68;101607.44;5057016;28;20429;-43
2022/05/02 01:00:33;;;;;;;2.65;1.67;;;;;;;26.21;29.93;101611.72;5071463;28;20021;-43
2022/05/02 01:03:02;;;;;;;2.28;1.50;;;;;;;26.24;29.57;101610.00;5056299;28;20025;-42
2022/05/02 01:05:31;;;;;;;2.03;1.50;;;;;;;26.24;29.81;101604.75;5056406;28;20021;-43
2022/05/02 01:08:00;;;;;;;2.38;1.52;;;;;;;26.16;30.05;101593.22;5056508;28;20462;-43
2022/05/02 01:10:29;;;;;;;2.65;1.67;;;;;;;26.15;29.96;101601.09;5056087;28;20040;-43
2022/05/02 01:12:57;;;;;;;2.63;1.23;;;;;;;26.13;29.79;101593.22;5056338;28;20054;-43
2022/05/02 01:15:28;;;;;;;3.22;1.75;;;;;;;26.24;29.49;101588.06;5056083;28;20035;-47
2022/05/02 01:17:56;;;;;;;2.97;1.50;;;;;;;26.16;29.96;101589.72;5055080;28;20458;-48
2022/05/02 01:20:25;;;;;;;4.13;1.95;;;;;;;26.17;29.56;101586.22;5055564;28;20489;-44
2022/05/02 01:22:53;;;;;;;4.75;1.63;;;;;;;26.12;30.16;101593.16;5056061;28;20033;-44
2022/05/02 01:25:22;;;;;;;3.55;1.40;;;;;;;26.13;29.75;101582.69;5056068;28;20491;-42
2022/05/02 01:27:50;;;;;;;2.08;1.70;;;;;;;26.18;29.76;101580.97;5055708;28;20481;-43
2022/05/02 01:30:18;;;;;;;2.60;1.48;;;;;;;26.21;29.76;101582.78;5054522;28;20028;-43
2022/05/02 01:32:47;;;;;;;3.38;1.67;;;;;;;26.18;29.84;101595.91;5055887;28;20035;-44
2022/05/02 01:35:15;;;;;;;3.00;1.85;;;;;;;26.11;29.58;101586.09;5054682;28;20029;-46
2022/05/02 01:37:44;;;;;;;2.22;1.50;;;;;;;26.17;29.99;101594.13;5055595;28;20029;-47
2022/05/02 01:40:12;;;;;;;2.30;1.70;;;;;;;26.05;29.93;101586.91;5055775;28;20029;-46
2022/05/02 01:42:41;;;;;;;4.15;1.88;;;;;;;26.10;29.96;101595.75;5054636;28;20090;-43
2022/05/02 01:45:10;;;;;;;4.70;1.67;;;;;;;26.06;29.66;101589.53;5055553;28;20068;-42
2022/05/02 01:47:38;;;;;;;3.45;1.92;;;;;;;26.04;29.65;101590.41;5055242;28;20535;-42
2022/05/02 01:50:07;;;;;;;2.28;1.55;;;;;;;26.06;30.05;101589.53;5055509;28;20108;-43
2022/05/02 01:52:35;;;;;;;2.75;1.45;;;;;;;26.00;30.26;101594.75;5053993;28;20044;-44
2022/05/02 01:55:04;;;;;;;3.60;1.60;;;;;;;26.00;29.82;101588.56;5053590;28;20037;-44
2022/05/02 01:57:33;;;;;;;3.90;1.63;;;;;;;26.11;29.80;101591.38;5054907;28;20025;-42
2022/05/02 02:00:01;;;;;;;3.80;1.83;;;;;;;26.00;30.00;101597.38;5055544;28;20043;-44
2022/05/02 02:02:30;;;;;;;4.82;1.77;;;;;;;25.98;30.06;101587.69;5055325;28;20439;-42
2022/05/02 02:07:45;;;;;;;3.10;1.80;;;;;;;25.92;30.38;101586.75;5054792;28;20025;-41
2022/05/02 02:10:14;;;;;;;2.63;1.92;;;;;;;26.04;30.14;101593.94;5055116;28;20020;-43
2022/05/02 02:12:43;;;;;;;2.92;1.50;;;;;;;26.00;30.28;101592.09;5055084;28;20029;-44
2022/05/02 02:15:14;;;;;;;2.25;1.50;;;;;;;25.95;30.22;101593.78;5054917;28;20032;-44
2022/05/02 02:17:43;;;;;;;4.20;1.77;;;;;;;25.95;30.10;101593.78;5053803;28;20029;-43
2022/05/02 02:20:12;;;;;;;2.33;1.50;;;;;;;25.98;30.21;101595.59;5053551;28;20045;-44
2022/05/02 02:22:41;;;;;;;3.30;1.70;;;;;;;25.91;30.25;101592.84;5053262;28;20041;-42
2022/05/02 02:25:10;;;;;;;2.92;1.65;;;;;;;25.99;30.38;101584.19;5054756;28;20104;-43
2022/05/02 02:27:38;;;;;;;4.00;1.50;;;;;;;25.92;30.26;101581.47;5054844;28;20040;-47
2022/05/02 02:30:07;;;;;;;2.30;1.65;;;;;;;26.01;30.19;101585.09;5054700;28;20025;-45
2022/05/02 02:32:36;;;;;;;2.78;1.83;;;;;;;25.87;29.98;101561.25;5054820;28;20033;-43
2022/05/02 02:35:04;;;;;;;2.72;1.48;;;;;;;25.96;30.20;101576.28;5069538;28;20387;-43
2022/05/02 02:37:33;;;;;;;5.28;2.40;;;;;;;25.98;30.33;101583.31;5054653;28;20155;-43
2022/05/02 02:40:01;;;;;;;4.25;1.88;;;;;;;25.92;30.37;101577.97;5054730;28;20106;-45
2022/05/02 02:42:30;;;;;;;2.90;1.70;;;;;;;25.87;30.34;101577.91;5054149;28;20020;-47
2022/05/02 02:44:58;;;;;;;2.35;1.80;;;;;;;25.76;30.27;101563.72;5053166;28;20029;-43
2022/05/02 02:47:27;;;;;;;2.45;1.50;;;;;;;25.83;30.37;101570.81;5053857;28;20025;-43
2022/05/02 02:49:55;;;;;;;3.35;1.80;;;;;;;25.79;30.31;101569.91;5054164;28;20032;-44
2022/05/02 02:52:24;;;;;;;3.65;2.00;;;;;;;25.83;30.38;101581.31;5053975;28;20029;-43
2022/05/02 02:54:52;;;;;;;3.53;2.05;;;;;;;25.80;30.70;101570.81;5054178;28;20029;-45
2022/05/02 02:57:21;;;;;;;3.80;1.75;;;;;;;25.81;30.54;101569.03;5054226;28;20052;-42
2022/05/02 02:59:49;;;;;;;3.08;1.65;;;;;;;25.86;30.34;101576.13;5054396;28;20505;-43
2022/05/02 03:02:18;;;;;;;3.97;1.92;;;;;;;25.97;29.99;101573.66;5054073;28;20039;-44
2022/05/02 03:07:34;;;;;;;2.75;1.73;;;;;;;25.85;30.24;101563.84;5053669;28;20044;-43
2022/05/02 03:10:02;;;;;;;4.45;2.05;;;;;;;25.83;30.55;101568.19;5052175;28;20099;-44
2022/05/02 03:12:31;;;;;;;3.25;2.03;;;;;;;25.84;30.40;101572.59;5052951;28;20406;-43
2022/05/02 03:14:59;;;;;;;2.75;1.83;;;;;;;25.77;30.61;101562.88;5052741;28;20039;-43
2022/05/02 03:17:28;;;;;;;7.78;1.92;;;;;;;25.89;30.41;101570.06;5053496;28;20033;-45
2022/05/02 03:19:56;;;;;;;3.80;1.92;;;;;;;25.78;30.26;101557.63;5069041;28;20053;-45
2022/05/02 03:22:25;;;;;;;3.50;2.00;;;;;;;25.87;30.28;101571.78;5053833;28;20531;-42
2022/05/02 03:24:53;;;;;;;2.58;1.73;;;;;;;25.81;30.49;101569.03;5053867;28;20438;-44
2022/05/02 03:27:22;;;;;;;2.53;2.03;;;;;;;25.82;30.28;101574.31;5053696;28;20033;-45
2022/05/02 03:29:50;;;;;;;3.65;1.90;;;;;;;25.81;30.56;101571.66;5052247;28;20029;-43
2022/05/02 03:32:18;;;;;;;3.85;2.00;;;;;;;25.88;29.83;101563.91;5053564;28;20051;-45
2022/05/02 03:34:46;;;;;;;3.40;1.80;;;;;;;25.96;30.13;101568.41;5053842;28;20025;-43
2022/05/02 03:37:15;;;;;;;3.50;1.88;;;;;;;25.83;30.03;101565.56;5052206;28;20025;-46
2022/05/02 03:39:44;;;;;;;4.22;1.88;;;;;;;25.90;30.49;101572.69;5053659;28;20025;-45
2022/05/02 03:42:12;;;;;;;3.65;1.95;;;;;;;25.85;30.12;101573.50;5053535;28;20036;-44
2022/05/02 03:44:41;;;;;;;2.35;1.65;;;;;;;25.90;30.42;101569.16;5053452;28;20025;-43
2022/05/02 03:47:09;;;;;;;2.40;1.83;;;;;;;25.93;30.51;101570.09;5053293;28;20037;-45
2022/05/02 03:49:38;;;;;;;3.22;2.20;;;;;;;25.77;30.20;101547.97;5053411;28;20029;-44
2022/05/02 03:52:07;;;;;;;3.00;2.22;;;;;;;25.82;30.39;101557.66;5053023;28;20029;-43
2022/05/02 03:54:35;;;;;;;4.75;2.28;;;;;;;25.88;30.37;101570.91;5053140;28;20037;-43
2022/05/02 03:57:04;;;;;;;4.32;2.28;;;;;;;25.87;30.29;101563.88;5052138;28;20025;-43
2022/05/02 03:59:32;;;;;;;4.65;2.13;;;;;;;25.71;30.73;101571.53;5053286;28;20031;-45
2022/05/02 04:02:01;;;;;;;8.60;2.80;;;;;;;25.68;30.59;101562.72;5053203;28;20083;-46
2022/05/02 04:04:29;;;;;;;3.35;2.00;;;;;;;25.70;30.60;101564.53;5053139;28;20024;-43
2022/05/02 04:06:58;;;;;;;4.35;2.30;;;;;;;25.77;30.36;101565.50;5053144;28;20474;-43
2022/05/02 04:09:26;;;;;;;2.92;2.20;;;;;;;25.76;30.62;101555.84;5052935;28;20777;-43
2022/05/02 04:11:56;;;;;;;6.20;2.30;;;;;;;25.68;30.08;101560.97;5052995;28;20036;-43
2022/05/02 04:14:25;;;;;;;4.35;2.40;;;;;;;25.67;30.71;101568.81;5053082;28;20032;-44
2022/05/02 04:16:53;;;;;;;3.72;2.40;;;;;;;25.70;30.34;101574.13;5052216;28;20035;-42
2022/05/02 04:19:22;;;;;;;3.78;2.35;;;;;;;25.68;30.60;101573.22;5052901;28;20128;-47
2022/05/02 04:21:50;;;;;;;5.28;2.33;;;;;;;25.65;30.33;101576.69;5054594;28;20090;-46
2022/05/02 04:24:19;;;;;;;3.97;2.50;;;;;;;25.75;30.56;101577.72;5057172;28;20056;-49
2022/05/02 04:26:46;;;;;;;4.13;2.15;;;;;;;25.66;30.45;101574.94;5057035;28;20021;-47
2022/05/02 04:29:15;;;;;;;5.90;2.55;;;;;;;25.69;30.34;101575.00;5057055;28;20078;-46
2022/05/02 04:31:43;;;;;;;3.58;2.08;;;;;;;25.62;30.79;101567.03;5056554;28;20037;-45
2022/05/02 04:34:12;;;;;;;2.80;1.95;;;;;;;25.59;30.41;101560.81;5056977;28;20060;-44
2022/05/02 04:36:40;;;;;;;3.42;1.88;;;;;;;25.63;30.74;101566.16;5056218;28;20029;-46
2022/05/02 04:39:09;;;;;;;3.10;2.20;;;;;;;25.65;30.69;101570.56;5056954;28;20021;-45
2022/05/02 04:41:37;;;;;;;4.40;2.30;;;;;;;25.58;30.87;101575.72;5056840;28;20104;-45
2022/05/02 04:44:06;;;;;;;3.22;2.00;;;;;;;25.65;30.51;101570.56;5056580;28;20375;-45
2022/05/02 04:46:35;;;;;;;5.10;2.05;;;;;;;25.66;30.76;101573.22;5056894;28;20025;-42
2022/05/02 04:49:03;;;;;;;2.72;1.88;;;;;;;25.68;30.90;101578.47;5056678;28;20130;-42
2022/05/02 04:51:32;;;;;;;5.32;1.77;;;;;;;25.60;30.77;101563.50;5056757;28;20029;-42
2022/05/02 04:54:00;;;;;;;3.22;1.80;;;;;;;25.71;30.84;101578.53;5056502;28;20036;-45
2022/05/02 04:56:29;;;;;;;2.83;1.85;;;;;;;25.71;30.69;101573.28;5056671;28;20028;-47
2022/05/02 04:58:57;;;;;;;5.53;1.80;;;;;;;25.75;30.57;101578.59;5054964;28;20032;-43
2022/05/02 05:01:26;;;;;;;2.53;1.73;;;;;;;25.75;30.37;101575.97;5056362;28;20424;-49
2022/05/02 05:03:54;;;;;;;3.22;1.92;;;;;;;25.70;30.89;101575.03;5056352;28;20040;-44
2022/05/02 05:06:22;;;;;;;3.33;1.75;;;;;;;25.77;30.57;101581.25;5056268;28;20029;-47
2022/05/02 05:08:51;;;;;;;3.78;2.00;;;;;;;25.81;30.61;101582.19;5056328;28;20031;-42
2022/05/02 05:11:39;;;;;;;3.63;1.70;;;;;;;25.78;30.52;101585.66;5056318;28;20025;-47
2022/05/02 05:17:51;;;;;;;2.65;1.60;;;;;;;25.77;30.55;101581.25;5055851;28;20406;-44
2022/05/02 05:20:23;;;;;;;3.70;1.50;;;;;;;25.73;30.77;101580.31;5052314;28;20097;-48
2022/05/02 05:23:01;;;;;;;3.97;1.58;;;;;;;25.79;30.49;101582.16;5055764;28;20075;-47
2022/05/02 05:25:49;;;;;;;2.30;1.55;;;;;;;25.84;30.63;101582.22;5056124;28;20071;-43
2022/05/02 05:28:42;;;;;;;3.40;1.52;;;;;;;25.78;30.65;101583.91;5055898;28;20032;-47
2022/05/02 05:31:33;;;;;;;4.22;1.67;;;;;;;25.85;30.60;101584.88;5049158;28;20056;-42
2022/05/02 05:34:08;;;;;;;2.35;1.40;;;;;;;25.83;30.65;101585.72;5055261;28;20070;-44
2022/05/02 05:36:59;;;;;;;3.47;1.80;;;;;;;25.85;30.78;101595.38;5056013;28;20036;-46
2022/05/02 05:39:34;;;;;;;2.47;1.65;;;;;;;25.81;30.69;101593.59;5051241;28;20032;-43
2022/05/02 05:42:08;;;;;;;4.03;1.70;;;;;;;25.79;30.71;101593.56;5055751;28;20033;-44
2022/05/02 05:44:45;;;;;;;;;;;;;;;25.93;30.54;101599.03;5056037;28;20036;-43
2022/05/02 05:47:29;;;;;;;3.42;1.45;;;;;;;25.89;30.26;101606.84;5055621;28;19916;-43
2022/05/02 05:50:09;;;;;;;3.07;1.70;;;;;;;25.85;30.51;101599.78;5054067;28;20331;-50
2022/05/02 05:52:57;;;;;;;3.50;1.60;;;;;;;25.84;30.50;101606.75;5054242;28;20131;-46
2022/05/02 05:55:38;;;;;;;2.92;1.45;;;;;;;25.82;30.38;101600.59;5048396;28;20044;-43
2022/05/02 05:58:17;;;;;;;2.90;1.65;;;;;;;25.88;30.65;101605.09;5053337;28;20185;-44
2022/05/02 06:00:46;;;;;;;4.57;1.88;;;;;;;25.87;30.49;101598.06;5055516;28;20017;-49
2022/05/02 06:03:15;;;;;;;4.47;1.90;;;;;;;25.82;30.41;101608.47;5053380;28;20060;-43
2022/05/02 06:05:46;;;;;;;7.50;1.92;;;;;;;25.83;30.61;101612.00;5053991;28;20040;-42
2022/05/02 06:08:24;;;;;;;4.20;2.00;;;;;;;25.82;30.61;101608.47;5055113;28;20043;-43
2022/05/02 06:10:53;;;;;;;4.72;2.03;;;;;;;25.75;30.46;101604.88;5055174;28;20118;-48
2022/05/02 06:13:21;;;;;;;5.22;1.70;;;;;;;25.85;30.85;101608.53;5053974;28;20045;-47
2022/05/02 06:18:40;;;;;;;9.07;1.85;;;;;;;25.73;30.71;101605.72;5051057;28;20044;-45
2022/05/02 06:21:09;;;;;;;4.07;1.50;;;;;;;25.72;31.06;101614.47;5055109;28;20029;-42
2022/05/02 06:23:44;;;;;;;2.88;1.42;;;;;;;25.73;30.97;101610.97;5053854;28;20029;-43
2022/05/02 06:26:11;;;;;;;3.92;1.70;;;;;;;25.77;30.86;101618.06;5053875;28;20051;-43
2022/05/02 06:28:42;;;;;;;2.70;1.40;;;;;;;25.81;31.13;101618.97;5054614;28;20458;-43
2022/05/02 06:31:16;;;;;;;3.17;1.50;;;;;;;25.84;30.84;101616.41;5054919;28;20032;-44
2022/05/02 06:33:48;;;;;;;3.63;1.70;;;;;;;25.85;30.79;101618.16;5054686;28;20025;-43
2022/05/02 06:36:31;;;;;;;4.15;1.48;;;;;;;25.84;30.66;101619.91;5054815;28;20031;-42
2022/05/02 06:39:37;;;;;;;3.75;1.60;;;;;;;25.85;30.87;101626.94;5054596;28;20028;-46
2022/05/02 06:42:10;;;;;;;5.60;1.63;;;;;;;25.85;30.91;101621.66;5049167;28;20032;-45
2022/05/02 06:45:01;;;;;;;7.07;1.60;;;;;;;25.87;30.89;101627.84;5053652;28;20029;-43
2022/05/02 06:48:08;;;;;;;9.73;1.50;;;;;;;25.88;30.68;101618.22;5049782;28;20509;-43
2022/05/02 06:50:41;;;;;;;6.43;2.03;;;;;;;25.84;30.94;101622.53;5050411;28;20036;-43
2022/05/02 06:53:33;;;;;;;5.78;2.40;;;;;;;25.84;30.86;101627.78;5054340;28;20017;-43
2022/05/02 06:56:20;;;;;;;4.88;1.83;;;;;;;25.84;31.21;101622.53;5046503;28;20517;-45
2022/05/02 06:59:08;;;;;;;2.60;1.33;;;;;;;25.79;31.03;101627.72;5050739;28;20124;-47
2022/05/02 07:01:56;;;;;;;3.80;1.67;;;;;;;25.81;30.86;101632.13;5050750;28;20471;-47
2022/05/02 07:05:02;;;;;;;6.60;1.65;;;;;;;25.87;30.96;101630.47;5049910;28;20049;-43
2022/05/02 07:07:58;;;;;;;5.35;1.55;;;;;;;25.90;31.08;101633.16;5044944;28;20036;-44
2022/05/02 07:10:32;;;;;;;2.33;1.50;;;;;;;25.88;31.29;101631.38;5050011;28;20029;-42
2022/05/02 07:13:04;;;;;;;7.53;1.50;;;;;;;25.85;30.92;101636.56;5053936;28;20052;-47
2022/05/02 07:15:36;;;;;;;3.10;1.60;;;;;;;25.86;31.00;101639.22;5053464;28;20030;-46
2022/05/02 07:18:07;;;;;;;4.63;1.65;;;;;;;25.79;31.38;101634.72;5053570;28;20482;-43
2022/05/02 07:20:55;;;;;;;3.63;1.75;;;;;;;25.82;31.13;101633.88;5053890;28;20132;-44
2022/05/02 07:23:52;;;;;;;3.03;1.60;;;;;;;25.86;31.36;101643.59;5053665;28;20068;-42
2022/05/02 07:26:21;;;;;;;5.30;1.40;;;;;;;25.87;30.99;101635.72;5049987;28;20037;-43
2022/05/02 07:28:50;;;;;;;3.55;1.17;;;;;;;25.91;30.84;101641.91;5052541;28;20032;-43
2022/05/02 07:31:21;;;;;;;4.63;1.50;;;;;;;25.89;31.14;101641.88;5053714;28;20031;-43
2022/05/02 07:33:51;;;;;;;3.83;1.63;;;;;;;25.84;30.99;101640.91;5052127;28;20049;-42
2022/05/02 07:36:22;;;;;;;2.47;1.40;;;;;;;25.87;30.92;101646.25;5053688;28;20037;-42
2022/05/02 07:39:09;;;;;;;4.78;1.73;;;;;;;25.89;31.16;101635.75;5052252;28;20470;-44
2022/05/02 07:41:37;;;;;;;4.63;1.58;;;;;;;25.87;31.07;101635.72;5052303;28;20029;-42
2022/05/02 07:44:07;;;;;;;9.43;1.98;;;;;;;25.83;31.43;101636.53;5052114;28;20029;-45
2022/05/02 07:46:41;;;;;;;8.13;1.50;;;;;;;25.83;31.37;101639.16;5035483;28;20358;-43
2022/05/02 07:49:10;;;;;;;5.85;1.42;;;;;;;25.85;31.20;101640.06;5053085;28;20406;-43
2022/05/02 07:51:47;;;;;;;5.90;1.48;;;;;;;25.87;31.09;101645.38;5053280;28;20116;-45
2022/05/02 07:54:20;;;;;;;3.22;1.60;;;;;;;25.89;31.03;101646.28;5053386;28;20055;-44
2022/05/02 07:56:50;;;;;;;2.50;1.23;;;;;;;25.90;31.25;101640.13;5051935;28;20025;-43
2022/05/02 07:59:21;;;;;;;7.47;1.50;;;;;;;25.85;31.43;101632.19;5051962;28;20371;-44
2022/05/02 08:01:49;;;;;;;3.90;1.83;;;;;;;25.83;31.48;101646.16;5052112;28;20513;-44
2022/05/02 08:04:19;;;;;;;2.60;1.65;;;;;;;25.81;31.29;101646.16;5053308;28;20036;-42
2022/05/02 08:07:11;;;;;;;2.60;1.42;;;;;;;25.88;31.29;101637.50;5053157;28;20040;-42
2022/05/02 08:09:43;;;;;;;5.45;1.92;;;;;;;25.85;31.11;101641.81;5047298;28;20040;-47
2022/05/02 08:12:13;;;;;;;3.53;1.88;;;;;;;25.85;31.40;101637.44;5053013;28;20104;-47
2022/05/02 08:15:02;;;;;;;4.45;1.60;;;;;;;25.74;31.46;101621.50;5053466;28;20025;-49
2022/05/02 08:17:57;;;;;;;5.70;1.60;;;;;;;25.88;31.31;101650.63;5052940;28;20112;-45
2022/05/02 08:20:56;;;;;;;2.10;1.40;;;;;;;25.92;31.41;101649.81;5052494;28;20045;-49
2022/05/02 08:27:16;;;;;;;4.00;1.60;;;;;;;25.91;31.41;101662.94;5045009;28;20471;-45
2022/05/02 08:29:30;;;;;;;3.38;1.40;;;;;;;25.97;31.37;101656.91;5045200;28;20048;-43
2022/05/02 08:32:10;;;;;;;2.40;1.42;;;;;;;25.90;31.30;101659.44;5052671;28;20059;-43
2022/05/02 08:34:41;;;;;;;3.80;1.40;;;;;;;25.91;31.51;101653.31;5052843;28;20031;-42
2022/05/02 08:37:37;;;;;;;4.70;1.35;;;;;;;25.91;31.50;101663.84;5053065;28;20360;-43
2022/05/02 08:40:06;;;;;;;5.43;1.40;;;;;;;25.91;31.68;101655.94;5052696;28;20025;-42
2022/05/02 08:42:44;;;;;;;2.45;1.42;;;;;;;25.95;31.65;101656.88;5052781;28;20031;-46
2022/05/02 08:45:41;;;;;;;1.83;1.20;;;;;;;25.95;31.64;101651.59;5051374;28;20086;-43
2022/05/02 08:48:32;;;;;;;3.97;2.17;;;;;;;25.95;31.72;101651.59;5049374;28;20453;-44
2022/05/02 08:51:19;;;;;;;3.45;1.63;;;;;;;26.00;31.58;101652.56;5052912;28;20479;-42
2022/05/02 08:54:15;;;;;;;2.85;1.73;;;;;;;25.99;31.27;101650.81;5041683;28;20090;-44
2022/05/02 08:56:52;;;;;;;2.08;1.30;;;;;;;25.99;31.50;101656.06;5043319;28;20040;-47
2022/05/02 08:59:40;;;;;;;2.78;1.50;;;;;;;26.02;31.48;101653.50;5052792;28;20016;-43
2022/05/02 09:02:43;;;;;;;3.55;1.52;;;;;;;25.84;31.62;101622.53;5049235;28;20041;-46
2022/05/02 09:05:15;;;;;;;3.53;1.63;;;;;;;26.03;31.35;101649.09;5048556;28;20124;-43
2022/05/02 09:07:50;;;;;;;3.30;1.30;;;;;;;26.01;31.60;101661.34;5053908;28;20024;-43
2022/05/02 09:10:21;;;;;;;;;;;;;;;26.14;31.40;101657.19;5055564;28;20104;-42
2022/05/02 09:13:18;;;;;;;2.72;1.48;;;;;;;26.10;31.45;101658.84;5054627;28;19913;-46
2022/05/02 09:15:57;;;;;;;4.68;1.50;;;;;;;26.06;31.48;101663.16;5047899;28;20033;-44
2022/05/02 09:18:45;;;;;;;7.18;2.17;;;;;;;26.05;31.91;101661.44;5055158;28;20056;-43
2022/05/02 09:21:43;;;;;;;3.45;1.52;;;;;;;26.01;31.59;101663.97;5056011;28;20037;-45
2022/05/02 09:24:45;;;;;;;5.53;1.50;;;;;;;26.00;31.64;101662.19;5048517;28;20128;-47
2022/05/02 09:27:36;;;;;;;3.35;1.48;;;;;;;26.03;31.54;101659.63;5054920;28;20116;-43
2022/05/02 09:30:11;;;;;;;2.42;1.35;;;;;;;26.06;31.63;101663.16;5054943;28;20375;-43
2022/05/02 09:32:46;;;;;;;2.90;1.30;;;;;;;26.07;31.44;101664.94;5056054;28;20029;-43
2022/05/02 09:35:34;;;;;;;4.10;1.42;;;;;;;26.13;31.53;101671.19;5053985;28;20032;-43
2022/05/02 09:38:16;;;;;;;2.05;1.45;;;;;;;26.06;31.96;101660.53;5050070;28;20072;-45
2022/05/02 09:40:45;;;;;;;3.85;1.48;;;;;;;26.11;31.66;101667.63;5055784;28;20021;-45
2022/05/02 09:49:58;;;;;;;4.53;1.58;;;;;;;26.11;32.03;101668.56;5049671;28;20033;-44
2022/05/02 09:52:49;;;;;;;2.97;1.70;;;;;;;26.13;32.10;101666.84;5055740;28;20027;-46
2022/05/02 09:58:31;;;;;;;5.18;2.15;;;;;;;26.18;31.79;101667.75;5050638;28;20124;-47
2022/05/02 10:01:11;;;;;;;2.75;1.85;;;;;;;26.18;31.80;101670.41;5055480;28;20059;-43
2022/05/02 10:03:41;;;;;;;4.68;1.77;;;;;;;26.24;31.68;101669.59;5054413;28;20099;-45
2022/05/02 10:06:13;;;;;;;3.25;2.00;;;;;;;26.24;31.81;101670.50;5054173;28;20056;-42
2022/05/02 10:08:51;;;;;;;2.70;1.60;;;;;;;26.26;31.47;101675.75;5054237;28;20025;-44
2022/05/02 10:11:45;;;;;;;2.33;1.50;;;;;;;26.24;31.83;101667.88;5055421;28;20020;-42
2022/05/02 10:14:35;;;;;;;1.92;1.60;;;;;;;26.29;31.80;101678.44;5046982;28;20500;-44
2022/05/02 10:17:11;;;;;;;3.95;1.60;;;;;;;26.28;31.60;101673.19;5050453;28;20041;-44
2022/05/02 10:19:50;;;;;;;7.65;1.77;;;;;;;26.32;31.38;101669.69;5054689;28;20045;-43
2022/05/02 10:22:24;;;;;;;4.68;1.77;;;;;;;26.30;31.66;101669.69;5055168;28;20099;-43
2022/05/02 10:25:11;;;;;;;2.58;1.95;;;;;;;26.34;31.48;101676.78;5053869;28;20089;-43
2022/05/02 10:27:41;;;;;;;3.65;1.67;;;;;;;26.33;31.47;101676.72;5047591;28;20045;-44
2022/05/02 10:30:12;;;;;;;3.28;1.90;;;;;;;26.33;31.50;101671.47;5053648;28;20134;-43
2022/05/02 10:32:59;;;;;;;1.83;1.50;;;;;;;26.37;31.44;101671.56;5053415;28;20020;-44
2022/05/02 10:35:29;;;;;;;3.13;1.75;;;;;;;26.31;31.73;101668.84;5053493;28;20075;-44
2022/05/02 10:38:06;;;;;;;5.25;1.80;;;;;;;26.32;31.84;101670.59;5053340;28;20025;-44
2022/05/02 10:40:45;;;;;;;3.03;1.35;;;;;;;26.30;31.75;101658.31;5053969;28;20025;-46
2022/05/02 10:43:25;;;;;;;6.18;1.75;;;;;;;26.36;31.90;101668.91;5054175;28;20128;-43
2022/05/02 10:45:54;;;;;;;3.13;1.55;;;;;;;26.34;31.95;101660.09;5053237;28;20048;-45
2022/05/02 10:48:24;;;;;;;4.30;1.67;;;;;;;26.37;31.98;101665.41;5037014;28;20025;-44
2022/05/02 10:51:05;;;;;;;3.10;1.75;;;;;;;26.37;31.96;101670.66;5053502;28;20045;-47
2022/05/02 10:53:56;;;;;;;5.07;2.03;;;;;;;26.43;32.02;101656.72;5054223;28;20100;-43
2022/05/02 10:56:36;;;;;;;2.08;1.38;;;;;;;26.46;31.75;101656.75;5053280;28;20339;-48
2022/05/02 10:59:06;;;;;;;2.25;1.60;;;;;;;26.44;32.21;101661.09;5054511;28;20025;-44
2022/05/02 11:01:54;;;;;;;2.83;1.40;;;;;;;26.45;31.97;101665.50;5054472;28;20466;-46
2022/05/02 11:04:23;;;;;;;4.22;1.73;;;;;;;26.46;32.07;101665.53;5050482;28;20371;-43
2022/05/02 11:06:56;;;;;;;2.40;1.30;;;;;;;26.45;32.09;101663.78;5054110;28;20055;-43
2022/05/02 11:10:07;;;;;;;1.90;1.13;;;;;;;26.50;31.96;101656.81;5053920;28;20025;-46
2022/05/02 11:12:42;;;;;;;4.93;1.30;;;;;;;26.51;32.00;101661.22;5053861;28;20432;-44
2022/05/02 11:15:26;;;;;;;5.10;1.63;;;;;;;26.55;31.92;101664.78;5053972;28;20268;-45
2022/05/02 11:18:07;;;;;;;1.67;1.17;;;;;;;26.57;32.05;101656.91;5052778;28;20025;-44
2022/05/02 11:20:43;;;;;;;3.40;1.45;;;;;;;26.57;31.77;101660.41;5053492;28;20049;-45
2022/05/02 11:23:31;;;;;;;4.38;1.27;;;;;;;26.59;31.78;101663.06;5053902;28;20075;-47
2022/05/02 11:26:10;;;;;;;1.35;1.05;;;;;;;26.51;31.89;101650.69;5050710;28;20029;-45
2022/05/02 11:29:06;;;;;;;2.35;1.33;;;;;;;26.60;31.84;101664.84;5052626;28;20025;-43
2022/05/02 11:31:57;;;;;;;5.45;1.55;;;;;;;26.53;31.99;101650.72;5049345;28;20035;-45
2022/05/02 11:34:44;;;;;;;2.05;1.50;;;;;;;26.57;32.09;101660.41;5047787;28;20036;-47
2022/05/02 11:37:25;;;;;;;2.33;1.30;;;;;;;26.56;32.08;101656.00;5053527;28;20024;-46
2022/05/02 11:40:01;;;;;;;1.70;1.10;;;;;;;26.65;31.81;101660.50;5053570;28;20037;-43
2022/05/02 11:42:30;;;;;;;1.83;1.33;;;;;;;26.62;32.00;101658.72;5053451;28;20036;-49
2022/05/02 11:45:18;;;;;;;2.42;1.30;;;;;;;26.60;32.12;101654.31;5053628;28;20029;-43
2022/05/02 11:48:19;;;;;;;4.32;1.42;;;;;;;26.71;32.04;101657.94;5052172;28;20466;-43
2022/05/02 11:50:48;;;;;;;2.80;1.25;;;;;;;26.70;31.79;101653.56;5047580;28;20083;-45
2022/05/02 11:53:17;;;;;;;3.20;1.50;;;;;;;26.73;31.73;101652.69;5053340;28;20395;-45
2022/05/02 11:55:47;;;;;;;2.95;1.55;;;;;;;26.75;31.93;101645.69;5053281;28;20033;-45
2022/05/02 11:58:19;;;;;;;3.78;1.15;;;;;;;26.74;31.83;101651.84;5035734;28;20095;-44
2022/05/02 12:01:00;;;;;;;1.80;1.30;;;;;;;26.81;31.75;101651.09;5053129;28;20025;-47
2022/05/02 12:03:28;;;;;;;1.65;1.40;;;;;;;26.75;31.89;101649.25;5053442;28;20025;-45
2022/05/02 12:06:02;;;;;;;1.65;1.20;;;;;;;26.69;31.94;101654.41;5052137;28;20059;-44
2022/05/02 12:08:39;;;;;;;2.70;1.30;;;;;;;26.76;31.78;101653.63;5052962;28;20184;-47
2022/05/02 12:11:10;;;;;;;1.58;1.17;;;;;;;26.76;31.72;101642.22;5053151;28;20028;-47
2022/05/02 12:13:41;;;;;;;2.05;1.20;;;;;;;26.73;31.78;101648.34;5053055;28;20504;-43
2022/05/02 12:16:10;;;;;;;1.95;1.27;;;;;;;26.73;31.74;101655.31;5051959;28;20027;-46
2022/05/02 12:18:57;;;;;;;3.63;1.02;;;;;;;26.60;31.73;101620.09;5052908;28;20491;-46
2022/05/02 12:21:45;;;;;;;2.20;1.40;;;;;;;26.75;31.77;101657.13;5053244;28;20501;-46
2022/05/02 12:24:27;;;;;;;1.85;1.40;;;;;;;26.70;31.50;101645.66;5053153;28;20037;-46
2022/05/02 12:26:57;;;;;;;1.10;0.98;;;;;;;26.65;31.63;101632.44;5052788;28;20028;-47